createdAt,value
2018-05-19T00:01:57.166Z,84.29
2018-05-19T00:04:24.709Z,83.67
2018-05-19T00:06:52.205Z,84.02
2018-05-19T00:09:19.701Z,84.41
2018-05-19T00:11:47.213Z,84.09
2018-05-19T00:14:14.709Z,84.19
2018-05-19T00:16:42.380Z,84.45
2018-05-19T00:19:09.876Z,83.87
2018-05-19T00:21:37.361Z,84.53
2018-05-19T00:24:04.917Z,84.14
2018-05-19T00:26:32.420Z,84.10
2018-05-19T00:29:00.185Z,83.92
2018-05-19T00:31:27.664Z,83.95
2018-05-19T00:33:55.157Z,84.65
2018-05-19T00:36:22.693Z,85.21
2018-05-19T00:38:50.205Z,85.58
2018-05-19T00:41:17.753Z,84.70
2018-05-19T00:43:45.253Z,84.44
2018-05-19T00:46:12.741Z,84.53
2018-05-19T00:48:40.253Z,84.88
2018-05-19T00:51:07.748Z,85.12
2018-05-19T00:53:35.300Z,86.14
2018-05-19T00:56:02.809Z,86.42
2018-05-19T00:58:30.307Z,86.56
2018-05-19T01:00:57.841Z,86.23
2018-05-19T01:03:25.333Z,85.83
2018-05-19T01:05:53.065Z,86.24
2018-05-19T01:08:20.553Z,86.43
2018-05-19T01:10:48.057Z,87.38
2018-05-19T01:13:15.564Z,88.39
2018-05-19T01:15:43.049Z,87.41
2018-05-19T01:18:10.821Z,87.01
2018-05-19T01:20:38.317Z,86.53
2018-05-19T01:23:05.812Z,87.70
2018-05-19T01:25:33.324Z,87.68
2018-05-19T01:28:00.816Z,87.22
2018-05-19T01:30:28.378Z,87.41
2018-05-19T01:32:55.872Z,86.89
2018-05-19T01:35:23.361Z,86.89
2018-05-19T01:37:50.889Z,86.53
2018-05-19T01:40:18.385Z,87.04
2018-05-19T01:42:46.125Z,86.40
2018-05-19T01:45:13.614Z,87.00
2018-05-19T01:47:41.121Z,87.30
2018-05-19T01:50:08.656Z,87.36
2018-05-19T01:52:36.137Z,86.90
2018-05-19T01:55:03.876Z,87.51
2018-05-19T01:57:31.365Z,88.46
2018-05-19T01:59:58.873Z,90.37
2018-05-19T02:02:26.381Z,90.61
2018-05-19T02:04:53.892Z,90.65
2018-05-19T02:07:21.527Z,89.95
2018-05-19T02:09:49.017Z,89.31
2018-05-19T02:12:16.592Z,88.98
2018-05-19T02:14:44.125Z,88.59
2018-05-19T02:17:11.629Z,88.32
2018-05-19T02:19:39.148Z,88.33
2018-05-19T02:22:06.639Z,88.61
2018-05-19T02:24:34.129Z,88.45
2018-05-19T02:27:01.677Z,89.90
2018-05-19T02:29:29.193Z,89.54
2018-05-19T02:31:56.839Z,90.44
2018-05-19T02:34:24.326Z,90.39
2018-05-19T02:36:51.825Z,89.28
2018-05-19T02:39:19.333Z,89.55
2018-05-19T02:41:46.849Z,89.15
2018-05-19T02:44:14.380Z,88.32
2018-05-19T02:46:41.869Z,87.50
2018-05-19T02:49:09.384Z,88.11
2018-05-19T02:51:36.913Z,87.67
2018-05-19T02:54:04.416Z,87.48
2018-05-19T02:56:32.039Z,86.44
2018-05-19T02:58:59.520Z,86.60
2018-05-19T03:01:27.017Z,86.61
2018-05-19T03:03:54.580Z,86.87
2018-05-19T03:06:22.097Z,86.62
2018-05-19T03:08:49.806Z,86.83
2018-05-19T03:11:17.294Z,87.63
2018-05-19T03:13:44.789Z,87.39
2018-05-19T03:16:12.313Z,87.43
2018-05-19T03:18:39.809Z,87.40
2018-05-19T03:21:07.784Z,86.16
2018-05-19T03:23:35.272Z,86.13
2018-05-19T03:26:02.765Z,86.46
2018-05-19T03:28:30.280Z,86.20
2018-05-19T03:30:57.785Z,86.61
2018-05-19T03:33:25.601Z,86.96
2018-05-19T03:35:53.089Z,86.57
2018-05-19T03:38:20.577Z,87.48
2018-05-19T03:40:48.092Z,87.46
2018-05-19T03:43:15.593Z,87.19
2018-05-19T03:45:43.116Z,88.74
2018-05-19T03:48:10.614Z,89.08
2018-05-19T03:50:38.105Z,88.04
2018-05-19T03:53:05.616Z,88.20
2018-05-19T03:55:33.181Z,87.83
2018-05-19T03:58:12.465Z,87.85
2018-05-19T04:00:51.983Z,87.48
2018-05-19T04:03:19.502Z,87.94
2018-05-19T04:05:46.989Z,88.55
2018-05-19T04:08:14.673Z,88.29
2018-05-19T04:10:42.165Z,89.67
2018-05-19T04:13:09.661Z,88.48
2018-05-19T04:15:37.180Z,88.85
2018-05-19T04:18:04.669Z,87.91
2018-05-19T04:20:32.196Z,88.42
2018-05-19T04:22:59.681Z,88.80
2018-05-19T04:25:27.168Z,88.77
2018-05-19T04:27:54.685Z,88.24
2018-05-19T04:30:22.176Z,88.32
2018-05-19T04:32:49.876Z,87.80
2018-05-19T04:35:17.366Z,87.36
2018-05-19T04:37:44.857Z,86.93
2018-05-19T04:40:12.369Z,86.08
2018-05-19T04:42:39.848Z,85.98
2018-05-19T04:45:07.532Z,85.21
2018-05-19T04:47:35.041Z,84.27
2018-05-19T04:50:02.535Z,83.44
2018-05-19T04:52:30.053Z,83.39
2018-05-19T04:54:57.541Z,82.61
2018-05-19T04:57:25.085Z,82.40
2018-05-19T04:59:52.578Z,81.67
2018-05-19T05:02:20.084Z,80.16
2018-05-19T05:04:47.618Z,80.78
2018-05-19T05:07:15.124Z,79.89
2018-05-19T05:09:42.677Z,80.18
2018-05-19T05:12:10.177Z,79.45
2018-05-19T05:14:37.682Z,78.31
2018-05-19T05:17:05.240Z,76.57
2018-05-19T05:19:32.751Z,75.55
2018-05-19T05:22:00.504Z,74.46
2018-05-19T05:24:27.993Z,73.46
2018-05-19T05:26:55.489Z,72.86
2018-05-19T05:29:23.009Z,73.49
2018-05-19T05:31:50.506Z,74.44
2018-05-19T05:34:18.252Z,73.14
2018-05-19T05:36:45.751Z,72.72
2018-05-19T05:39:13.253Z,71.58
2018-05-19T05:41:40.779Z,71.18
2018-05-19T05:44:08.284Z,69.77
2018-05-19T05:46:35.982Z,67.71
2018-05-19T05:49:03.473Z,69.31
2018-05-19T05:51:30.961Z,69.32
2018-05-19T05:53:58.517Z,68.73
2018-05-19T05:56:26.005Z,68.45
2018-05-19T05:58:53.535Z,69.64
2018-05-19T06:01:21.025Z,68.28
2018-05-19T06:03:48.520Z,70.63
2018-05-19T06:06:16.097Z,70.32
2018-05-19T06:08:43.581Z,69.00
2018-05-19T06:11:11.329Z,68.71
2018-05-19T06:13:38.820Z,69.37
2018-05-19T06:16:06.317Z,69.99
2018-05-19T06:18:33.910Z,68.50
2018-05-19T06:21:01.361Z,67.47
2018-05-19T06:23:29.035Z,68.39
2018-05-19T06:25:56.556Z,68.42
2018-05-19T06:28:24.065Z,67.53
2018-05-19T06:30:51.601Z,67.76
2018-05-19T06:33:19.092Z,66.25
2018-05-19T06:35:46.840Z,67.37
2018-05-19T06:38:14.340Z,66.50
2018-05-19T06:40:41.857Z,66.08
2018-05-19T06:43:09.389Z,65.49
2018-05-19T06:45:36.905Z,65.70
2018-05-19T06:48:04.691Z,66.51
2018-05-19T06:50:32.117Z,66.42
2018-05-19T06:52:59.622Z,67.07
2018-05-19T06:55:27.161Z,66.31
2018-05-19T06:57:54.692Z,66.06
2018-05-19T07:00:22.368Z,66.54
2018-05-19T07:02:49.923Z,63.32
2018-05-19T07:05:17.413Z,63.60
2018-05-19T07:07:44.994Z,62.95
2018-05-19T07:10:12.485Z,63.00
2018-05-19T07:12:40.055Z,62.56
2018-05-19T07:15:07.644Z,63.10
2018-05-19T07:17:35.101Z,62.58
2018-05-19T07:20:02.617Z,64.98
2018-05-19T07:22:30.115Z,63.02
2018-05-19T07:24:57.661Z,64.11
2018-05-19T07:27:25.221Z,61.12
2018-05-19T07:29:52.721Z,59.08
2018-05-19T07:32:20.265Z,58.39
2018-05-19T07:34:47.782Z,59.56
2018-05-19T07:37:15.274Z,58.48
2018-05-19T07:39:42.796Z,59.78
2018-05-19T07:42:10.297Z,60.82
2018-05-19T07:44:37.821Z,59.07
2018-05-19T07:47:05.357Z,58.79
2018-05-19T07:49:32.844Z,59.46
2018-05-19T07:52:00.380Z,58.04
2018-05-19T07:54:27.909Z,58.79
2018-05-19T07:56:55.443Z,59.00
2018-05-19T07:59:22.976Z,58.17
2018-05-19T08:01:50.488Z,57.46
2018-05-19T08:04:18.078Z,58.96
2018-05-19T08:06:45.508Z,58.87
2018-05-19T08:09:13.025Z,58.98
2018-05-19T08:11:40.525Z,59.75
2018-05-19T08:14:08.033Z,59.56
2018-05-19T08:16:35.614Z,59.16
2018-05-19T08:19:03.074Z,57.41
2018-05-19T08:21:30.569Z,57.04
2018-05-19T08:23:58.092Z,57.61
2018-05-19T08:26:25.610Z,57.17
2018-05-19T08:28:53.096Z,57.43
2018-05-19T08:31:20.650Z,56.25
2018-05-19T08:33:48.148Z,57.00
2018-05-19T08:36:15.637Z,56.42
2018-05-19T08:38:43.305Z,54.50
2018-05-19T08:41:10.855Z,54.35
2018-05-19T08:43:38.368Z,52.11
2018-05-19T08:46:05.905Z,53.34
2018-05-19T08:48:33.413Z,52.93
2018-05-19T08:51:00.981Z,51.31
2018-05-19T08:53:28.555Z,51.36
2018-05-19T08:55:56.044Z,51.58
2018-05-19T08:58:23.569Z,50.94
2018-05-19T09:00:51.069Z,51.31
2018-05-19T09:03:18.577Z,51.38
2018-05-19T09:05:46.090Z,52.35
2018-05-19T09:08:13.585Z,50.50
2018-05-19T09:10:41.129Z,50.06
2018-05-19T09:13:08.640Z,50.68
2018-05-19T09:15:36.125Z,52.34
2018-05-19T09:18:03.645Z,52.84
2018-05-19T09:20:31.142Z,52.15
2018-05-19T09:22:58.788Z,51.09
2018-05-19T09:25:26.377Z,52.47
2018-05-19T09:27:53.901Z,53.99
2018-05-19T09:30:21.425Z,52.97
2018-05-19T09:32:49.017Z,53.27
2018-05-19T09:35:16.564Z,54.72
2018-05-19T09:37:44.055Z,53.39
2018-05-19T09:40:11.538Z,52.81
2018-05-19T09:42:39.054Z,49.65
2018-05-19T09:45:06.544Z,52.22
2018-05-19T09:47:34.152Z,52.41
2018-05-19T09:50:01.665Z,52.20
2018-05-19T09:52:29.150Z,51.99
2018-05-19T09:54:56.677Z,53.57
2018-05-19T09:57:24.165Z,53.91
2018-05-19T09:59:51.853Z,52.68
2018-05-19T10:02:19.344Z,52.39
2018-05-19T10:04:46.867Z,50.95
2018-05-19T10:07:14.381Z,50.99
2018-05-19T10:09:41.959Z,50.06
2018-05-19T10:12:09.494Z,51.45
2018-05-19T10:14:37.032Z,50.26
2018-05-19T10:17:04.544Z,50.47
2018-05-19T10:19:32.150Z,51.08
2018-05-19T10:21:59.644Z,51.35
2018-05-19T10:24:27.379Z,50.57
2018-05-19T10:26:54.873Z,50.95
2018-05-19T10:29:22.361Z,52.34
2018-05-19T10:31:50.007Z,51.88
2018-05-19T10:34:17.528Z,50.08
2018-05-19T10:36:45.079Z,49.55
2018-05-19T10:39:12.573Z,48.63
2018-05-19T10:41:40.086Z,49.60
2018-05-19T10:44:07.621Z,49.64
2018-05-19T10:46:35.105Z,51.26
2018-05-19T10:49:02.807Z,50.30
2018-05-19T10:51:30.297Z,49.59
2018-05-19T10:53:57.781Z,48.78
2018-05-19T10:56:25.302Z,47.16
2018-05-19T10:58:52.800Z,48.18
2018-05-19T11:01:20.574Z,48.65
2018-05-19T11:03:48.057Z,49.60
2018-05-19T11:06:15.545Z,50.44
2018-05-19T11:08:43.064Z,50.62
2018-05-19T11:11:10.559Z,50.72
2018-05-19T11:13:38.221Z,49.45
2018-05-19T11:16:05.715Z,49.36
2018-05-19T11:18:33.276Z,48.03
2018-05-19T11:21:00.789Z,47.39
2018-05-19T11:23:28.308Z,47.80
2018-05-19T11:25:55.964Z,48.05
2018-05-19T11:28:23.461Z,51.97
2018-05-19T11:30:50.953Z,49.61
2018-05-19T11:33:18.465Z,50.30
2018-05-19T11:35:46.069Z,48.95
2018-05-19T11:38:13.740Z,48.34
2018-05-19T11:40:41.238Z,45.53
2018-05-19T11:43:08.737Z,48.47
2018-05-19T11:45:36.273Z,46.56
2018-05-19T11:48:03.774Z,46.76
2018-05-19T11:50:31.695Z,47.07
2018-05-19T11:52:59.195Z,46.63
2018-05-19T11:55:26.689Z,46.52
2018-05-19T11:57:54.200Z,47.64
2018-05-19T12:00:21.689Z,45.97
2018-05-19T12:02:49.732Z,46.81
2018-05-19T12:05:17.165Z,46.78
2018-05-19T12:07:44.681Z,45.87
2018-05-19T12:10:12.193Z,45.86
2018-05-19T12:12:39.706Z,43.20
2018-05-19T12:15:07.237Z,45.40
2018-05-19T12:17:34.732Z,44.46
2018-05-19T12:20:02.213Z,44.91
2018-05-19T12:22:29.745Z,44.21
2018-05-19T12:24:57.288Z,46.52
2018-05-19T12:27:24.973Z,47.01
2018-05-19T12:29:52.465Z,45.86
2018-05-19T12:32:19.958Z,45.91
2018-05-19T12:34:47.469Z,47.10
2018-05-19T12:37:14.962Z,44.82
2018-05-19T12:39:42.736Z,44.05
2018-05-19T12:42:10.236Z,44.79
2018-05-19T12:44:37.730Z,44.41
2018-05-19T12:47:05.254Z,44.49
2018-05-19T12:49:32.737Z,44.43
2018-05-19T12:52:00.501Z,44.85
2018-05-19T12:54:27.993Z,45.85
2018-05-19T12:56:55.490Z,46.68
2018-05-19T12:59:23.017Z,45.79
2018-05-19T13:01:50.570Z,46.32
2018-05-19T13:04:18.241Z,46.51
2018-05-19T13:06:45.732Z,45.98
2018-05-19T13:09:13.236Z,46.13
2018-05-19T13:11:40.749Z,45.16
2018-05-19T13:14:08.241Z,46.07
2018-05-19T13:16:35.769Z,46.08
2018-05-19T13:19:03.249Z,45.46
2018-05-19T13:21:30.803Z,43.93
2018-05-19T13:23:58.313Z,44.01
2018-05-19T13:26:25.810Z,42.37
2018-05-19T13:28:53.345Z,42.33
2018-05-19T13:31:20.852Z,42.55
2018-05-19T13:33:48.411Z,42.48
2018-05-19T13:36:15.909Z,44.79
2018-05-19T13:38:43.389Z,45.22
2018-05-19T13:41:10.909Z,45.15
2018-05-19T13:43:38.426Z,45.28
2018-05-19T13:46:05.967Z,46.55
2018-05-19T13:48:33.473Z,44.96
2018-05-19T13:51:01.226Z,45.67
2018-05-19T13:53:28.779Z,46.39
2018-05-19T13:55:56.269Z,45.39
2018-05-19T13:58:23.762Z,45.09
2018-05-19T14:00:51.273Z,44.03
2018-05-19T14:03:18.766Z,42.29
2018-05-19T14:05:46.304Z,41.58
2018-05-19T14:08:13.817Z,41.35
2018-05-19T14:10:41.311Z,42.27
2018-05-19T14:13:08.838Z,43.48
2018-05-19T14:15:36.321Z,42.85
2018-05-19T14:18:04.278Z,42.53
2018-05-19T14:20:31.773Z,41.16
2018-05-19T14:22:59.422Z,42.18
2018-05-19T14:25:26.940Z,43.54
2018-05-19T14:27:54.453Z,42.66
2018-05-19T14:30:22.095Z,43.12
2018-05-19T14:32:49.633Z,41.98
2018-05-19T14:35:17.141Z,42.03
2018-05-19T14:37:44.681Z,43.16
2018-05-19T14:40:12.169Z,42.96
2018-05-19T14:42:39.709Z,43.09
2018-05-19T14:45:07.209Z,43.20
2018-05-19T14:47:34.701Z,44.35
2018-05-19T14:50:02.213Z,43.93
2018-05-19T14:52:29.737Z,40.12
2018-05-19T14:54:57.249Z,40.57
2018-05-19T14:57:25.729Z,40.20
2018-05-19T14:59:53.214Z,41.12
2018-05-19T15:02:20.741Z,41.15
2018-05-19T15:04:48.231Z,42.23
2018-05-19T15:07:15.777Z,42.29
2018-05-19T15:09:43.257Z,43.06
2018-05-19T15:12:10.753Z,40.73
2018-05-19T15:14:38.287Z,41.26
2018-05-19T15:17:05.833Z,41.63
2018-05-19T15:19:33.382Z,42.55
2018-05-19T15:22:00.868Z,41.85
2018-05-19T15:24:28.365Z,41.18
2018-05-19T15:26:55.887Z,40.52
2018-05-19T15:29:23.368Z,40.52
2018-05-19T15:31:50.897Z,40.08
2018-05-19T15:34:18.378Z,40.23
2018-05-19T15:36:45.875Z,40.53
2018-05-19T15:39:13.541Z,41.27
2018-05-19T15:41:41.030Z,41.18
2018-05-19T15:44:08.605Z,41.32
2018-05-19T15:46:36.081Z,42.65
2018-05-19T15:49:03.577Z,43.28
2018-05-19T15:51:31.097Z,43.20
2018-05-19T15:53:58.593Z,43.59
2018-05-19T15:56:26.116Z,43.07
2018-05-19T15:58:53.613Z,42.86
2018-05-19T16:01:21.103Z,43.23
2018-05-19T16:03:48.621Z,43.43
2018-05-19T16:06:16.109Z,42.37
2018-05-19T16:08:43.708Z,44.26
2018-05-19T16:11:11.133Z,43.63
2018-05-19T16:13:38.629Z,43.63
2018-05-19T16:16:06.165Z,43.00
2018-05-19T16:18:33.702Z,43.51
2018-05-19T16:21:01.459Z,43.48
2018-05-19T16:23:28.962Z,43.57
2018-05-19T16:25:56.466Z,43.35
2018-05-19T16:28:23.981Z,45.08
2018-05-19T16:30:51.489Z,46.00
2018-05-19T16:33:19.442Z,45.40
2018-05-19T16:35:46.978Z,46.18
2018-05-19T16:38:14.441Z,47.03
2018-05-19T16:40:41.945Z,46.97
2018-05-19T16:43:09.453Z,44.68
2018-05-19T16:45:37.217Z,44.94
2018-05-19T16:48:04.701Z,44.43
2018-05-19T16:50:32.205Z,44.43
2018-05-19T16:52:59.721Z,44.97
2018-05-19T16:55:27.212Z,46.32
2018-05-19T16:57:54.749Z,47.83
2018-05-19T17:00:22.329Z,47.92
2018-05-19T17:02:49.761Z,47.45
2018-05-19T17:05:17.270Z,47.90
2018-05-19T17:07:44.753Z,48.15
2018-05-19T17:10:12.505Z,48.80
2018-05-19T17:12:39.980Z,49.27
2018-05-19T17:15:07.465Z,48.69
2018-05-19T17:17:34.992Z,49.61
2018-05-19T17:20:02.491Z,50.38
2018-05-19T17:22:30.021Z,50.11
2018-05-19T17:24:57.517Z,49.97
2018-05-19T17:27:25.022Z,48.22
2018-05-19T17:29:52.530Z,47.99
2018-05-19T17:32:20.037Z,48.36
2018-05-19T17:34:47.720Z,48.33
2018-05-19T17:37:15.205Z,48.16
2018-05-19T17:39:42.718Z,48.87
2018-05-19T17:42:10.221Z,49.45
2018-05-19T17:44:37.701Z,48.33
2018-05-19T17:47:05.318Z,49.37
2018-05-19T17:49:32.817Z,50.31
2018-05-19T17:52:00.308Z,49.63
2018-05-19T17:54:27.817Z,50.40
2018-05-19T17:56:55.356Z,51.48
2018-05-19T17:59:23.217Z,51.44
2018-05-19T18:01:50.713Z,50.15
2018-05-19T18:04:18.200Z,50.08
2018-05-19T18:06:45.709Z,50.11
2018-05-19T18:09:13.198Z,50.18
2018-05-19T18:11:41.072Z,50.60
2018-05-19T18:14:08.593Z,51.31
2018-05-19T18:16:36.094Z,51.67
2018-05-19T18:19:03.705Z,52.12
2018-05-19T18:21:31.200Z,53.17
2018-05-19T18:23:58.729Z,53.61
2018-05-19T18:26:26.218Z,54.39
2018-05-19T18:28:53.700Z,54.68
2018-05-19T18:31:21.213Z,54.63
2018-05-19T18:33:48.696Z,55.29
2018-05-19T18:36:16.385Z,55.23
2018-05-19T18:38:43.896Z,55.80
2018-05-19T18:41:11.388Z,56.39
2018-05-19T18:43:38.902Z,56.20
2018-05-19T18:46:06.401Z,56.12
2018-05-19T18:48:34.160Z,56.50
2018-05-19T18:51:01.652Z,56.88
2018-05-19T18:53:29.141Z,57.31
2018-05-19T18:55:56.661Z,58.08
2018-05-19T18:58:24.162Z,58.19
2018-05-19T19:00:52.128Z,58.04
2018-05-19T19:03:19.627Z,59.02
2018-05-19T19:05:47.154Z,59.57
2018-05-19T19:08:14.696Z,60.03
2018-05-19T19:10:42.181Z,61.21
2018-05-19T19:13:10.189Z,61.48
2018-05-19T19:15:37.696Z,62.37
2018-05-19T19:18:05.239Z,62.66
2018-05-19T19:20:32.761Z,62.75
2018-05-19T19:23:00.245Z,62.70
2018-05-19T19:25:27.792Z,63.57
2018-05-19T19:27:55.320Z,63.32
2018-05-19T19:30:22.825Z,64.01
2018-05-19T19:32:50.352Z,63.53
2018-05-19T19:35:17.849Z,63.90
2018-05-19T19:37:45.785Z,63.80
2018-05-19T19:40:13.292Z,62.94
2018-05-19T19:42:40.867Z,62.79
2018-05-19T19:45:08.330Z,63.12
2018-05-19T19:47:35.821Z,64.55
2018-05-19T19:50:03.404Z,65.11
2018-05-19T19:52:31.841Z,65.39
2018-05-19T19:54:59.342Z,65.02
2018-05-19T19:57:26.858Z,66.06
2018-05-19T19:59:54.345Z,65.86
2018-05-19T20:02:21.880Z,65.91
2018-05-19T20:04:49.373Z,65.95
2018-05-19T20:07:16.881Z,65.88
2018-05-19T20:09:44.415Z,66.71
2018-05-19T20:12:11.919Z,65.97
2018-05-19T20:14:39.578Z,66.37
2018-05-19T20:17:07.069Z,66.87
2018-05-19T20:19:34.581Z,65.89
2018-05-19T20:22:02.092Z,67.44
2018-05-19T20:24:29.621Z,67.37
2018-05-19T20:26:57.482Z,67.37
2018-05-19T20:29:24.977Z,67.56
2018-05-19T20:31:52.469Z,67.21
2018-05-19T20:34:19.981Z,66.17
2018-05-19T20:36:47.469Z,66.46
2018-05-19T20:39:15.196Z,66.57
2018-05-19T20:41:42.685Z,67.60
2018-05-19T20:44:10.185Z,67.56
2018-05-19T20:46:37.693Z,67.41
2018-05-19T20:49:05.201Z,67.40
2018-05-19T20:51:32.758Z,67.69
2018-05-19T20:54:00.260Z,68.94
2018-05-19T20:56:27.756Z,69.64
2018-05-19T20:58:55.387Z,70.57
2018-05-19T21:01:22.883Z,70.73
2018-05-19T21:03:50.508Z,70.84
2018-05-19T21:06:18.071Z,71.17
2018-05-19T21:08:45.569Z,70.82
2018-05-19T21:11:13.086Z,68.74
2018-05-19T21:13:40.578Z,68.25
2018-05-19T21:16:08.130Z,69.67
2018-05-19T21:18:35.639Z,69.71
2018-05-19T21:21:03.128Z,70.84
2018-05-19T21:23:30.645Z,71.37
2018-05-19T21:25:58.172Z,71.78
2018-05-19T21:28:26.125Z,71.86
2018-05-19T21:30:53.622Z,72.40
2018-05-19T21:33:21.224Z,72.15
2018-05-19T21:35:48.749Z,72.80
2018-05-19T21:38:16.256Z,72.82
2018-05-19T21:40:44.090Z,73.70
2018-05-19T21:43:11.590Z,72.95
2018-05-19T21:45:39.083Z,73.23
2018-05-19T21:48:06.601Z,72.92
2018-05-19T21:50:34.104Z,72.50
2018-05-19T21:53:01.997Z,72.81
2018-05-19T21:55:29.509Z,73.90
2018-05-19T21:57:57.009Z,74.58
2018-05-19T22:00:24.540Z,74.14
2018-05-19T22:02:52.029Z,73.47
2018-05-19T22:05:19.825Z,73.56
2018-05-19T22:07:47.329Z,73.60
2018-05-19T22:10:14.873Z,74.13
2018-05-19T22:12:42.386Z,74.01
2018-05-19T22:15:09.879Z,74.06
2018-05-19T22:17:37.565Z,73.27
2018-05-19T22:20:05.065Z,73.23
2018-05-19T22:22:32.566Z,74.15
2018-05-19T22:25:00.097Z,74.71
2018-05-19T22:27:27.595Z,74.11
2018-05-19T22:29:55.528Z,74.64
2018-05-19T22:32:23.020Z,74.96
2018-05-19T22:34:50.534Z,75.40
2018-05-19T22:37:18.073Z,75.84
2018-05-19T22:39:45.566Z,76.30
2018-05-19T22:42:13.061Z,76.03
2018-05-19T22:44:40.581Z,75.97
2018-05-19T22:47:08.170Z,75.57
2018-05-19T22:49:35.590Z,76.15
2018-05-19T22:52:03.124Z,76.47
2018-05-19T22:54:30.620Z,77.23
2018-05-19T22:56:58.125Z,77.59
2018-05-19T22:59:26.092Z,78.04
2018-05-19T23:01:53.585Z,78.64
2018-05-19T23:04:21.073Z,77.89
2018-05-19T23:06:48.713Z,78.35
2018-05-19T23:09:16.208Z,77.99
2018-05-19T23:11:43.697Z,77.97
2018-05-19T23:14:11.221Z,78.15
2018-05-19T23:16:38.713Z,78.66
2018-05-19T23:19:06.208Z,79.97
2018-05-19T23:21:33.721Z,79.87
2018-05-19T23:24:01.212Z,80.08
2018-05-19T23:26:28.761Z,80.22
2018-05-19T23:28:56.261Z,79.74
2018-05-19T23:31:23.748Z,80.11
2018-05-19T23:33:51.306Z,80.65
2018-05-19T23:36:18.809Z,80.49
2018-05-19T23:38:46.506Z,79.97
2018-05-19T23:41:14.018Z,80.16
2018-05-19T23:43:41.533Z,79.57
2018-05-19T23:46:09.032Z,80.09
2018-05-19T23:48:36.557Z,80.23
2018-05-19T23:51:04.054Z,80.86
2018-05-19T23:53:31.599Z,80.25
2018-05-19T23:55:59.113Z,80.48
2018-05-19T23:58:27.028Z,80.54
